createdAt,value
2024-04-16T04:47:47.459Z,1.98
2024-04-16T04:50:15.206Z,2.00
2024-04-16T04:52:42.624Z,2.05
2024-04-16T04:55:10.229Z,1.80
2024-04-16T04:57:37.839Z,1.98
2024-04-16T05:00:05.645Z,1.60
2024-04-16T05:02:33.161Z,1.45
2024-04-16T05:05:00.735Z,1.20
2024-04-16T05:07:28.141Z,1.60
2024-04-16T05:09:55.834Z,1.23
2024-04-16T05:12:23.960Z,1.40
2024-04-16T05:14:51.882Z,1.40
2024-04-16T05:17:19.348Z,1.08
2024-04-16T05:19:47.097Z,1.30
2024-04-16T05:22:14.693Z,1.23
2024-04-16T05:24:42.530Z,1.33
2024-04-16T05:27:10.521Z,1.00
2024-04-16T05:29:38.290Z,1.98
2024-04-16T05:32:06.166Z,1.00
2024-04-16T05:34:34.021Z,1.30
2024-04-16T05:37:01.620Z,1.15
2024-04-16T05:39:29.393Z,1.17
2024-04-16T05:41:57.166Z,1.08
2024-04-16T05:44:24.842Z,2.05
2024-04-16T05:46:52.457Z,0.98
2024-04-16T05:49:20.638Z,0.90
2024-04-16T05:51:48.252Z,1.05
2024-04-16T05:54:15.986Z,1.15
2024-04-16T05:56:43.615Z,0.98
2024-04-16T05:59:11.277Z,1.10
2024-04-16T06:01:38.919Z,0.93
2024-04-16T06:04:06.916Z,1.05
2024-04-16T06:06:34.653Z,1.08
2024-04-16T06:09:02.418Z,0.95
2024-04-16T06:11:31.518Z,1.10
2024-04-16T06:14:02.292Z,1.15
2024-04-16T06:16:30.099Z,1.30
2024-04-16T06:18:57.774Z,1.85
2024-04-16T06:21:25.532Z,1.80
2024-04-16T06:23:53.121Z,1.95
2024-04-16T06:26:20.881Z,1.40
2024-04-16T06:28:48.620Z,1.48
2024-04-16T06:31:17.365Z,0.73
2024-04-16T06:33:45.317Z,0.70
2024-04-16T06:36:12.990Z,0.77
2024-04-16T06:38:40.707Z,0.50
2024-04-16T06:41:08.466Z,1.55
2024-04-16T06:43:36.211Z,1.13
2024-04-16T06:46:04.188Z,0.80
2024-04-16T06:48:35.691Z,0.90
2024-04-16T06:51:03.591Z,1.00
2024-04-16T06:53:31.266Z,1.00
2024-04-16T06:56:03.164Z,1.27
2024-04-16T06:58:31.042Z,0.95
2024-04-16T08:19:38.204Z,0.60
2024-04-16T08:22:09.847Z,0.63
2024-04-16T08:24:39.527Z,0.95
2024-04-16T08:27:06.928Z,1.10
2024-04-16T08:29:34.359Z,0.73
2024-04-16T08:32:01.951Z,0.80
2024-04-16T08:34:29.628Z,0.90
2024-04-16T08:36:57.074Z,1.00
2024-04-16T08:39:24.538Z,0.80
2024-04-16T08:41:53.380Z,0.90
2024-04-16T08:44:21.526Z,0.90
2024-04-16T08:46:49.458Z,0.60
2024-04-16T08:49:18.954Z,0.70
2024-04-16T13:27:17.204Z,1.30
2024-04-16T13:29:44.891Z,1.98
2024-04-16T13:32:12.309Z,1.13
2024-04-16T13:34:39.913Z,1.20
2024-04-16T13:37:07.434Z,2.22
2024-04-16T13:39:34.910Z,1.88
2024-04-16T13:42:02.351Z,1.77
2024-04-16T13:44:30.237Z,1.40
2024-04-16T13:46:57.622Z,1.08
2024-04-16T13:49:25.195Z,1.33
2024-04-16T13:51:52.651Z,1.20
2024-04-16T13:54:20.077Z,1.45
2024-04-16T13:56:47.848Z,2.58
2024-04-16T13:59:15.504Z,1.00
2024-04-16T14:01:42.963Z,1.25
2024-04-16T14:04:11.684Z,0.90
2024-04-16T14:06:39.145Z,1.20
2024-04-16T14:09:06.543Z,1.52
2024-04-16T14:11:33.972Z,1.25
2024-04-16T14:14:01.763Z,1.50
2024-04-16T14:16:29.333Z,1.42
2024-04-16T14:18:56.918Z,1.30
2024-04-16T14:21:24.445Z,1.30
2024-04-16T14:23:52.736Z,1.20
2024-04-16T14:26:22.153Z,1.63
2024-04-16T14:28:50.225Z,1.77
2024-04-16T14:31:17.846Z,1.65
2024-04-16T14:33:46.350Z,0.65
2024-04-16T14:36:13.993Z,0.77
2024-04-16T14:38:41.423Z,1.27
2024-04-16T14:41:09.075Z,1.35
2024-04-16T14:43:36.690Z,1.20
2024-04-16T14:46:04.588Z,1.38
2024-04-16T14:48:32.349Z,1.10
2024-04-16T14:51:03.259Z,1.55
2024-04-16T14:53:32.163Z,1.42
2024-04-16T14:55:59.783Z,1.05
2024-04-16T14:58:27.605Z,1.00
2024-04-16T15:00:55.472Z,1.10
2024-04-16T15:03:23.630Z,1.40
2024-04-16T15:05:51.679Z,1.75
2024-04-16T15:08:19.236Z,1.27
2024-04-16T15:10:47.659Z,1.20
2024-04-16T15:13:15.484Z,1.02
2024-04-16T15:15:42.942Z,1.20
2024-04-16T15:18:10.755Z,1.20
2024-04-16T15:20:38.332Z,1.10
2024-04-16T15:23:06.048Z,1.25
2024-04-16T15:25:33.548Z,1.23
2024-04-16T15:28:01.076Z,1.05
2024-04-16T15:30:28.567Z,1.30
2024-04-16T15:32:56.332Z,1.15
2024-04-16T15:35:24.145Z,1.30
2024-04-16T15:37:52.053Z,1.40
2024-04-16T15:40:26.832Z,1.50
2024-04-16T15:43:00.604Z,1.38
2024-04-16T15:45:28.385Z,1.70
2024-04-16T15:47:55.892Z,2.70
2024-04-16T15:50:23.576Z,1.90
2024-04-16T15:52:50.971Z,2.20
2024-04-16T15:55:18.533Z,2.08
2024-04-16T15:57:47.997Z,2.25
2024-04-16T16:00:27.013Z,2.30
2024-04-16T16:02:55.035Z,2.55
2024-04-16T16:05:22.554Z,2.20
2024-04-16T16:07:50.040Z,2.70
2024-04-16T16:10:17.574Z,2.00
2024-04-16T16:12:45.044Z,1.88
2024-04-16T16:15:12.404Z,2.20
2024-04-16T16:17:40.094Z,2.20
2024-04-16T16:20:08.810Z,2.25
2024-04-16T16:22:38.287Z,2.20
2024-04-16T16:25:07.624Z,2.13
2024-04-16T16:27:35.617Z,2.55
2024-04-16T16:30:03.034Z,2.45
2024-04-16T16:32:31.352Z,2.72
2024-04-16T16:35:03.455Z,2.65
2024-04-16T16:37:31.118Z,2.63
2024-04-16T16:39:58.768Z,2.47
2024-04-16T16:42:26.432Z,2.40
2024-04-16T16:44:53.812Z,2.75
2024-04-16T16:47:21.462Z,2.83
2024-04-16T16:49:51.127Z,3.00
2024-04-16T16:52:18.555Z,3.30
2024-04-16T16:54:46.074Z,3.13
2024-04-16T16:57:13.458Z,2.70
2024-04-16T16:59:40.804Z,2.90
2024-04-16T17:02:08.490Z,3.60
2024-04-16T17:04:35.942Z,2.67
2024-04-16T17:07:03.833Z,2.95
2024-04-16T17:09:31.562Z,3.15
2024-04-16T17:11:59.046Z,3.30
2024-04-16T17:14:26.537Z,2.67
2024-04-16T17:16:54.272Z,2.65
2024-04-16T17:19:22.031Z,3.25
2024-04-16T17:21:49.719Z,3.25
2024-04-16T17:24:17.199Z,2.72
2024-04-16T17:26:45.852Z,3.03
2024-04-16T17:29:13.186Z,2.80
2024-04-16T17:31:40.882Z,3.28
2024-04-16T17:34:08.684Z,3.72
2024-04-16T17:36:36.621Z,2.67
2024-04-16T17:39:05.228Z,3.17
2024-04-16T17:41:33.824Z,3.40
2024-04-16T17:44:01.241Z,2.90
2024-04-16T17:46:28.837Z,2.90
2024-04-16T17:48:56.194Z,2.92
2024-04-16T17:51:25.721Z,2.72
2024-04-16T17:53:53.438Z,2.97
2024-04-16T17:56:20.936Z,3.15
2024-04-16T17:58:50.722Z,3.22
2024-04-16T18:01:18.992Z,3.40
2024-04-16T18:03:47.067Z,3.20
2024-04-16T18:06:15.672Z,4.07
2024-04-16T18:08:43.166Z,6.55
2024-04-16T18:11:13.388Z,7.05
2024-04-16T18:13:42.576Z,9.38
2024-04-16T18:16:10.120Z,10.20
2024-04-16T18:18:37.846Z,8.65
2024-04-16T18:21:05.419Z,9.25
2024-04-16T18:23:34.745Z,14.95
2024-04-16T18:26:02.093Z,18.30
2024-04-16T18:28:29.637Z,19.45
2024-04-16T18:30:57.408Z,15.13
2024-04-16T18:33:25.202Z,10.18
2024-04-16T18:35:55.499Z,8.93
2024-04-16T18:38:28.170Z,6.13
2024-04-16T18:40:57.517Z,3.30
2024-04-16T18:43:25.535Z,3.75
2024-04-16T18:45:53.204Z,3.38
2024-04-16T18:48:20.778Z,3.53
2024-04-16T18:50:49.863Z,3.50
2024-04-16T18:53:17.568Z,3.33
2024-04-16T18:55:48.209Z,3.05
2024-04-16T18:58:16.906Z,3.92
2024-04-16T19:00:44.578Z,3.33
